Terminal Aerodrome Forecast
Issued by NWS Charleston, WV

Current Version | Previous Version | Graphics & Text | Print | Product List | Glossary On
Versions: 1 2 3 4 5 6 7 8 9 10 11 12 13 14 15 16 17 18 19 20 21 22 23 24
000
FTUS41 KRLX 291800 RRA
TAFHTS
TAF
KHTS 291800Z 2918/3018 27008KT P6SM SCT045
     FM292100 32006KT P6SM SCT120 BKN250
     FM300200 VRB03KT P6SM BKN100
     FM301100 07004KT 5SM -RA OVC050
     FM301400 07004KT 4SM SHRA BR OVC035=

USA.gov is the U.S. government's official web portal to all federal, state and local government web resources and services.